createdAt,value
2023-05-11T00:01:54.747Z,98002.78
2023-05-11T00:04:21.310Z,98012.69
2023-05-11T00:06:47.814Z,98019.84
2023-05-11T00:09:14.312Z,98012.25
2023-05-11T00:11:40.770Z,98021.81
2023-05-11T00:14:07.338Z,98015.53
2023-05-11T00:16:33.899Z,98013.03
2023-05-11T00:19:00.683Z,98008.91
2023-05-11T00:21:27.478Z,98014.41
2023-05-11T00:23:53.971Z,98008.22
2023-05-11T00:26:21.194Z,98007.44
2023-05-11T00:28:47.679Z,98009.22
2023-05-11T00:31:14.196Z,97998.97
2023-05-11T00:33:40.896Z,98004.59
2023-05-11T00:36:08.040Z,98007.81
2023-05-11T00:38:36.475Z,97998.16
2023-05-11T00:41:03.361Z,98006.44
2023-05-11T00:43:29.913Z,97998.53
2023-05-11T00:45:56.685Z,98006.31
2023-05-11T00:48:23.327Z,98000.56
2023-05-11T00:50:49.893Z,97995.44
2023-05-11T00:53:16.592Z,97993.31
2023-05-11T00:55:43.238Z,98003.59
2023-05-11T00:58:09.751Z,97987.91
2023-05-11T01:00:36.847Z,97999.88
2023-05-11T01:03:03.571Z,97998.75
2023-05-11T01:05:39.767Z,97996.69
2023-05-11T01:08:11.273Z,98005.81
2023-05-11T01:10:46.502Z,98001.94
2023-05-11T01:13:28.462Z,98004.59
2023-05-11T01:15:56.262Z,98011.16
2023-05-11T01:18:43.887Z,98013.22
2023-05-11T01:21:10.856Z,98015.53
2023-05-11T01:24:08.614Z,98017.75
2023-05-11T01:26:50.114Z,98012.50
2023-05-11T01:29:31.475Z,98016.97
2023-05-11T01:31:58.097Z,98020.97
2023-05-11T01:34:25.675Z,98016.19
2023-05-11T01:36:58.687Z,98020.41
2023-05-11T01:39:33.105Z,98002.97
2023-05-11T01:41:59.576Z,98008.91
2023-05-11T01:44:26.440Z,98017.63
2023-05-11T01:46:52.908Z,98011.13
2023-05-11T01:49:19.369Z,98004.94
2023-05-11T01:51:46.001Z,98009.66
2023-05-11T01:54:12.652Z,98008.66
2023-05-11T01:56:40.622Z,98011.00
2023-05-11T01:59:07.186Z,98016.84
2023-05-11T02:01:34.280Z,98021.47
2023-05-11T02:04:00.819Z,98018.69
2023-05-11T02:06:27.307Z,98023.56
2023-05-11T02:08:53.797Z,98029.63
2023-05-11T02:11:20.668Z,98030.88
2023-05-11T02:13:47.170Z,98031.63
2023-05-11T02:16:13.742Z,98030.53
2023-05-11T02:18:40.991Z,98029.75
2023-05-11T02:21:08.326Z,98030.47
2023-05-11T02:23:34.869Z,98028.41
2023-05-11T02:26:01.344Z,98037.41
2023-05-11T02:28:27.810Z,98033.03
2023-05-11T02:30:55.545Z,98026.22
2023-05-11T02:33:26.079Z,98029.00
2023-05-11T02:35:53.219Z,98033.28
2023-05-11T02:38:19.671Z,98029.25
2023-05-11T02:40:47.261Z,98028.97
2023-05-11T02:43:15.266Z,98027.72
2023-05-11T02:45:43.646Z,98037.13
2023-05-11T02:48:12.610Z,98035.06
2023-05-11T02:50:39.903Z,98022.97
2023-05-11T02:53:08.974Z,98022.81
2023-05-11T02:55:35.470Z,98029.75
2023-05-11T02:58:01.981Z,98026.78
2023-05-11T03:00:28.553Z,98031.09
2023-05-11T03:02:55.541Z,98036.59
2023-05-11T03:05:22.071Z,98032.09
2023-05-11T03:07:48.531Z,98036.78
2023-05-11T03:10:14.998Z,98030.72
2023-05-11T03:12:42.535Z,98031.97
2023-05-11T03:15:11.906Z,98031.22
2023-05-11T03:17:38.434Z,98041.31
2023-05-11T03:20:05.365Z,98036.34
2023-05-11T03:22:32.561Z,98029.91
2023-05-11T03:24:59.105Z,98030.66
2023-05-11T03:27:25.651Z,98035.03
2023-05-11T03:29:52.191Z,98027.94
2023-05-11T03:32:18.769Z,98036.28
2023-05-11T03:34:45.276Z,98034.81
2023-05-11T03:37:12.960Z,98038.91
2023-05-11T03:39:39.641Z,98038.50
2023-05-11T03:42:06.237Z,98032.34
2023-05-11T03:44:33.010Z,98032.91
2023-05-11T03:46:59.961Z,98034.50
2023-05-11T03:49:26.412Z,98039.69
2023-05-11T03:51:53.321Z,98029.31
2023-05-11T03:54:19.819Z,98027.81
2023-05-11T03:56:46.304Z,98029.88
2023-05-11T03:59:16.362Z,98035.94
2023-05-11T04:01:43.337Z,98035.50
2023-05-11T04:04:09.892Z,98035.13
2023-05-11T04:06:36.391Z,98026.22
2023-05-11T04:09:02.852Z,98025.84
2023-05-11T04:11:30.426Z,98028.31
2023-05-11T04:13:56.950Z,98033.31
2023-05-11T04:16:23.451Z,98029.75
2023-05-11T04:18:50.101Z,98031.28
2023-05-11T04:21:16.620Z,98029.28
2023-05-11T04:23:43.094Z,98031.28
2023-05-11T04:26:09.921Z,98041.63
2023-05-11T04:28:36.402Z,98041.00
2023-05-11T04:31:02.909Z,98043.41
2023-05-11T04:33:29.475Z,98044.78
2023-05-11T04:35:55.980Z,98039.97
2023-05-11T04:38:22.817Z,98040.06
2023-05-11T04:40:50.496Z,98038.91
2023-05-11T04:43:17.639Z,98037.84
2023-05-11T04:45:48.443Z,98036.84
2023-05-11T04:48:14.991Z,98039.84
2023-05-11T04:50:41.458Z,98040.38
2023-05-11T04:53:07.940Z,98047.53
2023-05-11T04:55:34.442Z,98042.84
2023-05-11T04:58:01.037Z,98044.47
2023-05-11T05:00:27.526Z,98048.09
2023-05-11T05:02:54.175Z,98046.94
2023-05-11T05:05:20.773Z,98047.78
2023-05-11T05:07:47.282Z,98037.88
2023-05-11T05:10:13.814Z,98042.75
2023-05-11T05:12:40.417Z,98044.00
2023-05-11T05:15:07.444Z,98039.91
2023-05-11T05:17:33.943Z,98055.44
2023-05-11T05:20:00.677Z,98050.31
2023-05-11T05:22:27.205Z,98054.63
2023-05-11T05:24:53.730Z,98050.88
2023-05-11T05:27:20.194Z,98056.81
2023-05-11T05:29:46.677Z,98056.91
2023-05-11T05:32:13.167Z,98054.47
2023-05-11T05:34:39.703Z,98053.38
2023-05-11T05:37:06.400Z,98066.53
2023-05-11T05:39:32.899Z,98067.03
2023-05-11T05:41:59.398Z,98062.69
2023-05-11T05:44:25.923Z,98062.84
2023-05-11T05:46:52.388Z,98059.41
2023-05-11T05:49:18.872Z,98062.25
2023-05-11T05:51:45.347Z,98061.50
2023-05-11T05:54:13.268Z,98071.13
2023-05-11T05:56:40.776Z,98064.72
2023-05-11T05:59:08.881Z,98071.25
2023-05-11T06:01:35.840Z,98061.69
2023-05-11T06:04:02.652Z,98065.66
2023-05-11T06:06:29.276Z,98063.72
2023-05-11T06:08:55.751Z,98073.75
2023-05-11T06:11:22.594Z,98073.06
2023-05-11T06:13:49.137Z,98073.19
2023-05-11T06:16:15.834Z,98067.69
2023-05-11T06:18:42.527Z,98073.34
2023-05-11T06:21:09.049Z,98063.75
2023-05-11T06:23:35.590Z,98075.69
2023-05-11T06:26:02.083Z,98070.88
2023-05-11T06:28:29.626Z,98068.88
2023-05-11T06:30:59.061Z,98064.44
2023-05-11T06:33:25.990Z,98060.75
2023-05-11T06:35:52.474Z,98070.06
2023-05-11T06:38:18.955Z,98069.84
2023-05-11T06:40:45.521Z,98070.34
2023-05-11T06:43:12.006Z,98064.91
2023-05-11T06:45:38.708Z,98068.41
2023-05-11T06:48:05.467Z,98067.56
2023-05-11T06:50:32.134Z,98069.31
2023-05-11T06:52:58.927Z,98073.28
2023-05-11T06:55:25.503Z,98071.28
2023-05-11T06:57:51.980Z,98066.09
2023-05-11T07:00:19.020Z,98076.25
2023-05-11T07:02:45.796Z,98070.59
2023-05-11T07:05:12.842Z,98074.41
2023-05-11T07:07:39.366Z,98072.84
2023-05-11T07:10:06.574Z,98075.03
2023-05-11T07:12:33.120Z,98078.28
2023-05-11T07:14:59.626Z,98075.44
2023-05-11T07:17:26.172Z,98072.09
2023-05-11T07:19:52.705Z,98079.88
2023-05-11T07:22:19.211Z,98077.59
2023-05-11T07:24:45.702Z,98074.72
2023-05-11T07:27:12.556Z,98071.41
2023-05-11T07:29:39.020Z,98073.00
2023-05-11T07:32:05.527Z,98073.72
2023-05-11T07:34:32.083Z,98077.47
2023-05-11T07:36:58.577Z,98074.91
2023-05-11T07:39:25.059Z,98074.72
2023-05-11T07:41:51.569Z,98077.28
2023-05-11T07:44:18.090Z,98077.69
2023-05-11T07:46:44.593Z,98072.22
2023-05-11T07:49:18.648Z,98075.38
2023-05-11T07:51:47.182Z,98073.81
2023-05-11T07:54:18.845Z,98076.84
2023-05-11T07:56:46.851Z,98075.28
2023-05-11T07:59:13.344Z,98080.50
2023-05-11T08:01:39.825Z,98084.56
2023-05-11T08:04:06.416Z,98084.25
2023-05-11T08:06:32.929Z,98073.50
2023-05-11T08:08:59.630Z,98081.88
2023-05-11T08:11:26.278Z,98075.91
2023-05-11T08:13:52.776Z,98076.91
2023-05-11T08:16:19.263Z,98080.22
2023-05-11T08:18:45.844Z,98082.59
2023-05-11T08:21:12.448Z,98084.97
2023-05-11T08:23:38.929Z,98080.03
2023-05-11T08:26:05.393Z,98078.84
2023-05-11T08:28:31.984Z,98084.50
2023-05-11T08:30:58.864Z,98081.03
2023-05-11T08:33:37.406Z,98081.28
2023-05-11T08:36:06.341Z,98079.50
2023-05-11T08:38:33.444Z,98080.34
2023-05-11T08:41:01.142Z,98082.44
2023-05-11T08:43:27.662Z,98088.09
2023-05-11T08:45:56.692Z,98082.38
2023-05-11T08:48:23.981Z,98077.63
2023-05-11T08:50:50.658Z,98080.09
2023-05-11T08:53:17.130Z,98084.91
2023-05-11T08:55:43.676Z,98097.81
2023-05-11T08:58:10.176Z,98085.06
2023-05-11T09:00:36.737Z,98089.84
2023-05-11T09:03:03.910Z,98085.50
2023-05-11T09:05:30.661Z,98094.78
2023-05-11T09:08:04.725Z,98091.53
2023-05-11T09:10:31.189Z,98088.59
2023-05-11T09:12:57.650Z,98083.28
2023-05-11T09:15:24.154Z,98081.38
2023-05-11T09:17:50.642Z,98082.53
2023-05-11T09:20:18.419Z,98077.38
2023-05-11T09:22:45.829Z,98083.84
2023-05-11T09:25:13.790Z,98084.91
2023-05-11T09:27:43.988Z,98081.91
2023-05-11T09:30:14.064Z,98090.56
2023-05-11T09:32:54.407Z,98087.22
2023-05-11T09:35:34.069Z,98092.00
2023-05-11T09:38:01.194Z,98099.19
2023-05-11T09:42:59.779Z,98103.75
2023-05-11T09:45:36.836Z,98101.38
2023-05-11T09:48:05.082Z,98106.81
2023-05-11T09:50:35.106Z,98095.69
2023-05-11T09:53:01.633Z,98105.72
2023-05-11T09:55:28.164Z,98105.78
2023-05-11T09:57:55.949Z,98098.00
2023-05-11T10:00:22.499Z,98103.75
2023-05-11T10:03:06.890Z,98108.25
2023-05-11T10:05:36.833Z,98092.50
2023-05-11T10:08:04.085Z,98095.38
2023-05-11T10:10:34.916Z,98099.13
2023-05-11T10:13:02.400Z,98089.38
2023-05-11T10:15:30.472Z,98091.47
2023-05-11T10:17:58.470Z,98093.53
2023-05-11T10:20:25.525Z,98088.91
2023-05-11T10:22:53.413Z,98075.28
2023-05-11T10:25:23.695Z,98085.16
2023-05-11T10:27:50.784Z,98094.16
2023-05-11T10:30:17.577Z,98082.53
2023-05-11T10:32:45.822Z,98087.84
2023-05-11T10:35:12.457Z,98076.00
2023-05-11T10:37:39.700Z,98080.09
2023-05-11T10:40:07.279Z,98076.94
2023-05-11T10:43:04.379Z,98072.53
2023-05-11T10:46:06.463Z,98078.50
2023-05-11T10:48:58.896Z,98072.44
2023-05-11T10:51:52.753Z,98081.69
2023-05-11T10:54:29.286Z,98067.81
2023-05-11T10:57:23.617Z,98072.50
2023-05-11T11:00:14.083Z,98071.75
2023-05-11T11:02:40.737Z,98075.19
2023-05-11T11:05:10.613Z,98078.91
2023-05-11T11:07:56.341Z,98078.84
2023-05-11T11:10:38.732Z,98078.13
2023-05-11T11:13:09.204Z,98077.16
2023-05-11T11:15:54.266Z,98078.31
2023-05-11T11:18:23.522Z,98083.53
2023-05-11T11:20:53.401Z,98080.78
2023-05-11T11:23:49.856Z,98075.31
2023-05-11T11:26:19.142Z,98069.81
2023-05-11T11:28:54.669Z,98078.25
2023-05-11T11:31:25.501Z,98073.22
2023-05-11T11:33:52.027Z,98074.25
2023-05-11T11:36:18.594Z,98076.56
2023-05-11T11:39:05.588Z,98074.28
2023-05-11T11:41:33.908Z,98077.06
2023-05-11T11:44:00.425Z,98081.84
2023-05-11T11:46:30.274Z,98079.06
2023-05-11T11:49:07.354Z,98091.13
2023-05-11T11:51:34.471Z,98090.38
2023-05-11T11:54:01.178Z,98085.91
2023-05-11T11:56:30.822Z,98087.22
2023-05-11T11:59:01.265Z,98083.63
2023-05-11T12:01:35.598Z,98086.13
2023-05-11T12:04:05.158Z,98093.00
2023-05-11T12:06:41.268Z,98090.16
2023-05-11T12:09:08.036Z,98086.97
2023-05-11T12:11:34.635Z,98091.88
2023-05-11T12:14:01.323Z,98078.66
2023-05-11T12:16:27.827Z,98090.31
2023-05-11T12:18:56.789Z,98089.78
2023-05-11T12:21:27.474Z,98089.41
2023-05-11T12:23:58.347Z,98081.03
2023-05-11T12:26:26.292Z,98078.28
2023-05-11T12:29:06.236Z,98092.16
2023-05-11T12:31:39.468Z,98086.22
2023-05-11T12:34:05.954Z,98086.63
2023-05-11T12:36:33.470Z,98081.09
2023-05-11T12:39:00.086Z,98083.81
2023-05-11T12:41:27.246Z,98082.16
2023-05-11T12:43:54.422Z,98081.38
2023-05-11T12:46:21.114Z,98073.31
2023-05-11T12:48:47.927Z,98078.50
2023-05-11T12:51:14.600Z,98081.25
2023-05-11T12:53:41.284Z,98078.13
2023-05-11T12:56:08.604Z,98076.16
2023-05-11T12:58:38.759Z,98076.69
2023-05-11T13:01:05.227Z,98073.41
2023-05-11T13:03:34.060Z,98084.50
2023-05-11T13:06:08.070Z,98083.34
2023-05-11T13:08:38.517Z,98080.88
2023-05-11T13:11:24.629Z,98069.88
2023-05-11T13:13:51.766Z,98076.28
2023-05-11T13:16:31.747Z,98069.84
2023-05-11T13:19:05.505Z,98080.69
2023-05-11T13:21:33.158Z,98070.56
2023-05-11T13:24:00.216Z,98073.34
2023-05-11T13:26:28.982Z,98076.38
2023-05-11T13:29:08.724Z,98069.78
2023-05-11T13:31:49.019Z,98072.88
2023-05-11T13:34:15.546Z,98073.25
2023-05-11T13:36:42.079Z,98071.69
2023-05-11T13:39:08.558Z,98070.59
2023-05-11T13:41:35.039Z,98069.38
2023-05-11T13:44:01.555Z,98066.97
2023-05-11T13:46:28.097Z,98081.06
2023-05-11T13:48:54.967Z,98073.56
2023-05-11T13:51:21.980Z,98074.94
2023-05-11T13:53:48.818Z,98071.34
2023-05-11T13:56:16.429Z,98072.50
2023-05-11T13:58:42.961Z,98062.94
2023-05-11T14:01:09.468Z,98063.72
2023-05-11T14:03:36.120Z,98064.16
2023-05-11T14:06:02.820Z,98053.94
2023-05-11T14:08:29.316Z,98060.25
2023-05-11T14:10:56.035Z,98050.59
2023-05-11T14:13:22.826Z,98048.94
2023-05-11T14:15:49.531Z,98049.75
2023-05-11T14:18:16.190Z,98050.41
2023-05-11T14:20:43.468Z,98052.88
2023-05-11T14:23:10.028Z,98050.03
2023-05-11T14:25:36.529Z,98051.22
2023-05-11T14:28:03.036Z,98053.69
2023-05-11T14:30:29.501Z,98047.53
2023-05-11T14:32:56.214Z,98047.59
2023-05-11T14:35:22.717Z,98059.38
2023-05-11T14:37:49.306Z,98063.09
2023-05-11T14:40:15.795Z,98071.47
2023-05-11T14:42:42.346Z,98067.63
2023-05-11T14:45:09.374Z,98076.59
2023-05-11T14:47:35.951Z,98076.13
2023-05-11T14:50:02.803Z,98070.50
2023-05-11T14:52:29.342Z,98071.34
2023-05-11T14:54:56.048Z,98075.00
2023-05-11T14:57:22.631Z,98078.91
2023-05-11T14:59:59.083Z,98069.97
2023-05-11T15:02:26.956Z,98070.28
2023-05-11T15:04:53.597Z,98065.19
2023-05-11T15:07:20.076Z,98069.63
2023-05-11T15:09:46.791Z,98071.34
2023-05-11T15:12:13.322Z,98062.19
2023-05-11T15:14:39.856Z,98060.53
2023-05-11T15:17:06.323Z,98063.31
2023-05-11T15:19:32.793Z,98061.97
2023-05-11T15:21:59.264Z,98072.03
2023-05-11T15:24:25.754Z,98068.50
2023-05-11T15:26:52.228Z,98064.38
2023-05-11T15:29:20.207Z,98074.25
2023-05-11T15:31:46.829Z,98071.81
2023-05-11T15:34:13.332Z,98081.81
2023-05-11T15:36:39.813Z,98079.47
2023-05-11T15:39:06.436Z,98072.25
2023-05-11T15:41:34.062Z,98065.50
2023-05-11T15:44:00.537Z,98074.19
2023-05-11T15:46:27.137Z,98075.38
2023-05-11T15:48:53.765Z,98065.50
2023-05-11T15:51:20.237Z,98070.16
2023-05-11T15:53:46.713Z,98078.91
2023-05-11T15:56:13.178Z,98073.81
2023-05-11T15:58:39.655Z,98075.44
2023-05-11T16:01:06.269Z,98087.56
2023-05-11T16:03:32.973Z,98082.03
2023-05-11T16:05:59.537Z,98082.13
2023-05-11T16:08:26.036Z,98077.34
2023-05-11T16:10:52.572Z,98074.25
2023-05-11T16:13:19.132Z,98076.72
2023-05-11T16:15:45.610Z,98076.69
2023-05-11T16:18:13.905Z,98074.63
2023-05-11T16:20:40.476Z,98076.22
2023-05-11T16:23:06.979Z,98071.88
2023-05-11T16:25:33.436Z,98071.03
2023-05-11T16:27:59.930Z,98068.50
2023-05-11T16:30:26.808Z,98076.19
2023-05-11T16:32:53.835Z,98079.69
2023-05-11T16:35:20.796Z,98077.91
2023-05-11T16:37:47.877Z,98083.59
2023-05-11T16:40:14.716Z,98080.31
2023-05-11T16:42:41.238Z,98077.94
2023-05-11T16:45:08.122Z,98075.06
2023-05-11T16:47:34.699Z,98084.28
2023-05-11T16:50:01.217Z,98083.84
2023-05-11T16:52:27.703Z,98069.53
2023-05-11T16:54:54.893Z,98079.50
2023-05-11T16:57:22.289Z,98073.66
2023-05-11T16:59:48.750Z,98085.13
2023-05-11T17:02:15.216Z,98075.59
2023-05-11T17:04:42.120Z,98085.78
2023-05-11T17:07:10.862Z,98077.56
2023-05-11T17:09:37.365Z,98089.22
2023-05-11T17:12:10.424Z,98089.47
2023-05-11T17:14:37.103Z,98075.53
2023-05-11T17:17:08.037Z,98082.69
2023-05-11T17:19:34.630Z,98084.72
2023-05-11T17:22:02.159Z,98081.81
2023-05-11T17:24:28.768Z,98093.69
2023-05-11T17:26:55.293Z,98091.66
2023-05-11T17:29:21.776Z,98096.75
2023-05-11T17:31:48.906Z,98097.94
2023-05-11T17:34:15.867Z,98105.47
2023-05-11T17:36:42.574Z,98093.91
2023-05-11T17:39:10.038Z,98101.28
2023-05-11T17:41:36.562Z,98096.44
2023-05-11T17:44:04.143Z,98108.28
2023-05-11T17:46:30.717Z,98101.41
2023-05-11T17:48:57.407Z,98112.50
2023-05-11T17:51:23.884Z,98111.63
2023-05-11T17:53:50.392Z,98112.38
2023-05-11T17:56:16.869Z,98114.34
2023-05-11T17:58:43.351Z,98116.34
2023-05-11T18:01:10.267Z,98116.34
2023-05-11T18:03:37.170Z,98114.78
2023-05-11T18:06:04.742Z,98110.88
2023-05-11T18:08:31.266Z,98112.88
2023-05-11T18:10:57.740Z,98107.34
2023-05-11T18:13:25.057Z,98105.31
2023-05-11T18:15:51.569Z,98109.28
2023-05-11T18:18:18.059Z,98106.97
2023-05-11T18:20:46.222Z,98117.31
2023-05-11T18:23:13.750Z,98122.16
2023-05-11T18:25:40.304Z,98129.75
2023-05-11T18:28:06.773Z,98135.09
2023-05-11T18:30:33.376Z,98144.53
2023-05-11T18:32:59.910Z,98143.66
2023-05-11T18:35:26.427Z,98146.88
2023-05-11T18:37:52.900Z,98143.91
2023-05-11T18:40:19.686Z,98137.53
2023-05-11T18:42:49.266Z,98142.34
2023-05-11T18:45:17.429Z,98137.56
2023-05-11T18:47:46.223Z,98126.13
2023-05-11T18:50:12.916Z,98128.59
2023-05-11T18:52:39.424Z,98123.97
2023-05-11T18:55:06.262Z,98113.66
2023-05-11T18:57:34.368Z,98109.22
2023-05-11T19:00:01.062Z,98112.03
2023-05-11T19:02:27.785Z,98123.22
2023-05-11T19:04:54.405Z,98137.94
2023-05-11T19:07:20.885Z,98149.00
2023-05-11T19:09:47.383Z,98148.50
2023-05-11T19:12:13.884Z,98152.69
2023-05-11T19:14:40.441Z,98146.44
2023-05-11T19:17:07.012Z,98145.19
2023-05-11T19:19:34.164Z,98164.72
2023-05-11T19:22:00.776Z,98168.38
2023-05-11T19:24:28.175Z,98181.63
2023-05-11T19:27:05.734Z,98180.19
2023-05-11T19:29:33.486Z,98180.13
2023-05-11T19:32:00.032Z,98187.50
2023-05-11T19:34:26.540Z,98193.22
2023-05-11T19:36:53.049Z,98189.06
2023-05-11T19:39:19.541Z,98194.63
2023-05-11T19:41:46.176Z,98182.56
2023-05-11T19:44:12.689Z,98186.63
2023-05-11T19:46:45.561Z,98192.53
2023-05-11T19:49:15.505Z,98189.31
2023-05-11T19:51:42.399Z,98185.00
2023-05-11T19:54:09.501Z,98183.69
2023-05-11T19:56:35.977Z,98187.66
2023-05-11T19:59:02.888Z,98184.06
2023-05-11T20:01:29.452Z,98185.22
2023-05-11T20:03:56.349Z,98182.38
2023-05-11T20:06:22.962Z,98183.91
2023-05-11T20:08:51.505Z,98189.56
2023-05-11T20:11:18.102Z,98190.78
2023-05-11T20:13:44.628Z,98188.75
2023-05-11T20:16:11.154Z,98190.34
2023-05-11T20:18:37.791Z,98193.44
2023-05-11T20:21:04.413Z,98202.13
2023-05-11T20:23:30.910Z,98195.84
2023-05-11T20:25:57.436Z,98200.63
2023-05-11T20:28:27.176Z,98196.28
2023-05-11T20:30:55.062Z,98206.19
2023-05-11T20:35:53.212Z,98210.59
2023-05-11T20:38:20.090Z,98208.97
2023-05-11T20:40:46.611Z,98214.47
2023-05-11T20:43:14.529Z,98204.91
2023-05-11T20:45:41.715Z,98206.06
2023-05-11T20:48:08.403Z,98218.75
2023-05-11T20:50:35.027Z,98213.25
2023-05-11T20:53:01.532Z,98216.84
2023-05-11T20:55:28.011Z,98211.22
2023-05-11T20:57:54.500Z,98221.16
2023-05-11T21:00:21.410Z,98224.31
2023-05-11T21:02:48.366Z,98213.25
2023-05-11T21:05:14.932Z,98222.41
2023-05-11T21:07:41.422Z,98221.53
2023-05-11T21:10:08.170Z,98228.28
2023-05-11T21:12:36.080Z,98221.91
2023-05-11T21:15:02.663Z,98234.94
2023-05-11T21:17:29.163Z,98226.53
2023-05-11T21:19:55.689Z,98226.53
2023-05-11T21:22:22.393Z,98234.81
2023-05-11T21:24:48.912Z,98229.91
2023-05-11T21:27:15.592Z,98226.69
2023-05-11T21:29:42.465Z,98230.19
2023-05-11T21:32:09.099Z,98237.22
2023-05-11T21:34:35.656Z,98238.28
2023-05-11T21:37:03.086Z,98236.56
2023-05-11T21:39:29.619Z,98236.13
2023-05-11T21:41:56.718Z,98233.94
2023-05-11T21:44:23.250Z,98235.03
2023-05-11T21:46:50.480Z,98244.91
2023-05-11T21:49:17.505Z,98238.09
2023-05-11T21:51:44.063Z,98242.00
2023-05-11T21:54:10.748Z,98250.03
2023-05-11T21:56:37.223Z,98253.91
2023-05-11T21:59:03.755Z,98257.63
2023-05-11T22:01:30.537Z,98263.72
2023-05-11T22:03:57.280Z,98270.00
2023-05-11T22:06:23.819Z,98271.53
2023-05-11T22:08:50.605Z,98275.81
2023-05-11T22:11:17.272Z,98284.78
2023-05-11T22:13:44.516Z,98284.16
2023-05-11T22:16:11.088Z,98281.75
2023-05-11T22:18:37.593Z,98284.00
2023-05-11T22:21:04.401Z,98287.22
2023-05-11T22:23:31.846Z,98288.78
2023-05-11T22:25:58.437Z,98293.53
2023-05-11T22:28:24.921Z,98294.38
2023-05-11T22:30:51.414Z,98294.38
2023-05-11T22:33:17.898Z,98301.66
2023-05-11T22:35:44.485Z,98307.13
2023-05-11T22:38:11.290Z,98304.63
2023-05-11T22:40:37.803Z,98306.97
2023-05-11T22:43:04.288Z,98317.53
2023-05-11T22:45:30.889Z,98324.09
2023-05-11T22:47:57.493Z,98340.75
2023-05-11T22:50:23.995Z,98344.63
2023-05-11T22:52:50.564Z,98342.53
2023-05-11T22:55:17.158Z,98346.28
2023-05-11T22:57:43.913Z,98353.03
2023-05-11T23:00:11.131Z,98360.19
2023-05-11T23:02:37.984Z,98368.34
2023-05-11T23:05:04.952Z,98363.72
2023-05-11T23:07:31.583Z,98370.44
2023-05-11T23:09:58.069Z,98370.81
2023-05-11T23:12:24.723Z,98367.03
2023-05-11T23:14:51.219Z,98376.88
2023-05-11T23:17:17.999Z,98369.41
2023-05-11T23:19:44.496Z,98366.44
2023-05-11T23:22:10.970Z,98372.09
2023-05-11T23:24:37.447Z,98378.56
2023-05-11T23:27:04.649Z,98380.63
2023-05-11T23:29:31.230Z,98383.94
2023-05-11T23:31:57.743Z,98397.41
2023-05-11T23:34:24.213Z,98392.44
2023-05-11T23:36:50.774Z,98403.09
2023-05-11T23:39:17.298Z,98395.22
2023-05-11T23:41:43.799Z,98402.75
2023-05-11T23:44:10.308Z,98406.16
2023-05-11T23:46:36.856Z,98408.59
2023-05-11T23:49:03.486Z,98414.06
2023-05-11T23:51:29.989Z,98419.69
2023-05-11T23:53:56.493Z,98419.44
2023-05-11T23:56:22.996Z,98421.88
2023-05-11T23:58:50.425Z,98421.41
